This is the latest recevied weather packets stored in our database for station/object KR4KUV. If no packets are shown the sender has not sent any weather packets the latest 1 day(s).
| Time | Temp. | Humidity | Pressure | Rain* | Wind** | Luminosity | Snow |
|---|---|---|---|---|---|---|---|
| 1778039142 | 18.33° C | 66% | 1016 hPa | 0 mm | - | 0 W/m² | - |
| 1778038536 | 15.56° C | 74% | 1016.1 hPa | 0 mm | - | 0 W/m² | - |
| 1778038233 | 15° C | 80% | 1015.8 hPa | 0 mm | - | 0 W/m² | - |
| 1778037627 | 14.44° C | 81% | 1015.6 hPa | 0 mm | - | 0 W/m² | - |
| 1778037325 | 14.44° C | 80% | 1015.8 hPa | 0 mm | - | 0 W/m² | - |
| 1778037021 | 15° C | 79% | 1015.6 hPa | 0 mm | - | 0 W/m² | - |
| 1778036416 | 15° C | 77% | 1015.6 hPa | 0 mm | - | 0 W/m² | - |
| 1778036113 | 15.56° C | 76% | 1015.5 hPa | 0 mm | - | 0 W/m² | - |
| 1778034899 | 15.56° C | 75% | 1015.6 hPa | 0 mm | - | 0 W/m² | - |
| 1778034596 | 15.56° C | 75% | 1015.7 hPa | 0 mm | - | 0 W/m² | - |
| 1778034294 | 15.56° C | 75% | 1015.8 hPa | 0 mm | - | 0 W/m² | - |
| 1778033991 | 15.56° C | 74% | 1015.7 hPa | 0 mm | - | 0 W/m² | - |
| 1778033689 | 15.56° C | 74% | 1015.8 hPa | 0 mm | - | 0 W/m² | - |
| 1778033083 | 16.11° C | 73% | 1015.7 hPa | 0 mm | - | 0 W/m² | - |
| 1778032780 | 16.11° C | 72% | 1015.8 hPa | 0 mm | - | 0 W/m² | - |
| 1778032478 | 16.11° C | 72% | 1015.9 hPa | 0 mm | - | 0 W/m² | - |
| 1778032174 | 16.11° C | 72% | 1015.8 hPa | 0 mm | - | 0 W/m² | - |
| 1778031871 | 16.67° C | 71% | 1015.9 hPa | 0 mm | - | 0 W/m² | - |
| 1778031568 | 16.67° C | 70% | 1015.9 hPa | 0 mm | - | 0 W/m² | - |
| 1778031266 | 16.67° C | 71% | 1015.7 hPa | 0 mm | - | 0 W/m² | - |
| 1778030962 | 16.67° C | 69% | 1015.7 hPa | 0 mm | - | 0 W/m² | - |
| 1778030356 | 17.22° C | 68% | 1015.4 hPa | 0 mm | - | 0 W/m² | - |
| 1778030053 | 17.22° C | 67% | 1015.6 hPa | 0 mm | - | 0 W/m² | - |
| 1778029750 | 17.78° C | 66% | 1015.4 hPa | 0 mm | - | 0 W/m² | - |
| 1778028843 | 18.33° C | 63% | 1015.6 hPa | 0 mm | - | 0 W/m² | - |
* Rain latest hour (hover to see other rain measurements)
** Current wind speed in m/s (hover to see current wind gust speed)